Pagina principale
METAR-TAF:

METAR-TAF

Aeroporti :

Aeroporto di Stoccolma-Arlanda

Stoccolma-Arlanda, Svezia

latitudine: 59-39N, longitudine: 017-57E, altezza: 38 m

Osservazione

Il bollettino è stato emesso 37 minuti fa, alle 02:20 UTC
Vento 11 kt da sud
Temperature 8°C
Umidità 57%
Pressione 1022 hPa
Visibilità 10 km o più
nessuna nube inferiore a 1500 m e nessun cumulonembo

METAR: ESSA 220220Z 19011KT CAVOK 08/M00 Q1022 NOSIG

Ora: 04:57 (02:57 UTC)

Previsione

Il bollettino è stato emesso 3 ore e 27 minuti fa, alle 23:30 UTC
Previsione valida dal 22 alle 00 UTC al 22 alle 24 UTC
Vento 8 kt da sud/sud-ovest
Visibilità 10 km o più
nessuna nube inferiore a 1500 m e nessun cumulonembo

TAF: ESSA 212330Z 2200/2224 20008KT CAVOK

Osservazioni e previsioni meteorologiche di più di 4000 aeroporti (messaggi METAR e TAF).

Le stazioni disponibili sono rappresentate dai dischi gialli e rossi sulla carta.

Puntare il mouse per vedere il nome della stazione.

Clicca sopra per visualizzare le osservazioni e previsioni meteorologiche.

Per cambiare la mappa : fare clic sui pulsanti verdi con una croce nera per ingrandire, il pulsante verde con un trattino per diminuire, o sulla freccia verde per le mappe adiacenti.


METAR-TAF: